createdAt,value
2018-10-06T00:01:02.931Z,99206.00
2018-10-06T00:03:07.997Z,99197.00
2018-10-06T00:05:12.444Z,99200.00
2018-10-06T00:07:17.358Z,99198.00
2018-10-06T00:09:21.815Z,99186.00
2018-10-06T00:11:26.408Z,99195.00
2018-10-06T00:13:30.855Z,99177.00
2018-10-06T00:15:35.366Z,99186.00
2018-10-06T00:17:40.266Z,99186.00
2018-10-06T00:19:44.713Z,99179.00
2018-10-06T00:21:49.306Z,99171.00
2018-10-06T00:23:53.827Z,99173.00
2018-10-06T00:25:58.323Z,99174.00
2018-10-06T00:28:02.818Z,99165.00
2018-10-06T00:30:07.578Z,99174.00
2018-10-06T00:32:12.059Z,99169.00
2018-10-06T00:34:17.469Z,99170.00
2018-10-06T00:36:21.961Z,99163.00
2018-10-06T00:38:26.443Z,99168.00
2018-10-06T00:40:30.991Z,99153.00
2018-10-06T00:42:35.435Z,99160.00
2018-10-06T00:44:39.963Z,99155.00
2018-10-06T00:46:44.458Z,99162.00
2018-10-06T00:48:48.911Z,99159.00
2018-10-06T00:50:55.254Z,99160.00
2018-10-06T00:53:00.288Z,99151.00
2018-10-06T00:55:04.876Z,99161.00
2018-10-06T00:57:09.358Z,99168.00
2018-10-06T00:59:13.877Z,99160.00
2018-10-06T01:01:18.382Z,99156.00
2018-10-06T01:03:23.106Z,99157.00
2018-10-06T01:05:27.667Z,99150.00
2018-10-06T01:07:32.162Z,99152.00
2018-10-06T01:09:37.790Z,99152.00
2018-10-06T01:11:42.415Z,99155.00
2018-10-06T01:13:46.882Z,99148.00
2018-10-06T01:15:51.407Z,99145.00
2018-10-06T01:17:56.230Z,99142.00
2018-10-06T01:20:00.712Z,99138.00
2018-10-06T01:22:05.671Z,99140.00
2018-10-06T01:24:10.159Z,99139.00
2018-10-06T01:26:14.668Z,99137.00
2018-10-06T01:28:19.142Z,99127.00
2018-10-06T01:30:23.664Z,99124.00
2018-10-06T01:32:28.291Z,99122.00
2018-10-06T01:34:33.045Z,99118.00
2018-10-06T01:36:37.854Z,99114.00
2018-10-06T01:38:42.791Z,99117.00
2018-10-06T01:40:47.279Z,99118.00
2018-10-06T01:42:51.794Z,99110.00
2018-10-06T01:44:56.370Z,99110.00
2018-10-06T01:47:00.860Z,99105.00
2018-10-06T01:49:05.382Z,99111.00
2018-10-06T01:51:09.877Z,99109.00
2018-10-06T01:53:14.378Z,99108.00
2018-10-06T01:55:18.883Z,99113.00
2018-10-06T01:57:23.490Z,99107.00
2018-10-06T01:59:28.000Z,99114.00
2018-10-06T02:01:32.596Z,99110.00
2018-10-06T02:03:37.132Z,99111.00
2018-10-06T02:05:41.643Z,99110.00
2018-10-06T02:07:46.165Z,99104.00
2018-10-06T02:09:50.710Z,99115.00
2018-10-06T02:11:55.619Z,99105.00
2018-10-06T02:14:00.122Z,99113.00
2018-10-06T02:16:04.666Z,99110.00
2018-10-06T02:18:09.179Z,99105.00
2018-10-06T02:20:13.661Z,99118.00
2018-10-06T02:22:18.218Z,99109.00
2018-10-06T02:24:22.739Z,99109.00
2018-10-06T02:26:27.310Z,99101.00
2018-10-06T02:28:31.840Z,99097.00
2018-10-06T02:30:36.330Z,99094.00
2018-10-06T02:32:40.847Z,99093.00
2018-10-06T02:34:45.378Z,99078.00
2018-10-06T02:36:49.945Z,99076.00
2018-10-06T02:38:55.345Z,99071.00
2018-10-06T02:41:00.080Z,99068.00
2018-10-06T02:43:04.575Z,99076.00
2018-10-06T02:45:10.550Z,99082.00
2018-10-06T02:47:15.382Z,99073.00
2018-10-06T02:49:19.902Z,99071.00
2018-10-06T02:51:24.412Z,99069.00
2018-10-06T02:53:28.922Z,99071.00
2018-10-06T02:55:33.581Z,99067.00
2018-10-06T02:57:38.299Z,99074.00
2018-10-06T02:59:42.835Z,99078.00
2018-10-06T03:01:47.316Z,99076.00
2018-10-06T03:03:51.863Z,99074.00
2018-10-06T03:05:56.416Z,99077.00
2018-10-06T03:08:00.987Z,99069.00
2018-10-06T03:10:05.658Z,99066.00
2018-10-06T03:12:10.850Z,99055.00
2018-10-06T03:14:15.788Z,99054.00
2018-10-06T03:16:20.314Z,99063.00
2018-10-06T03:18:24.973Z,99056.00
2018-10-06T03:20:29.495Z,99061.00
2018-10-06T03:22:33.962Z,99065.00
2018-10-06T03:24:39.466Z,99057.00
2018-10-06T03:26:43.931Z,99057.00
2018-10-06T03:28:48.477Z,99057.00
2018-10-06T03:30:52.996Z,99053.00
2018-10-06T03:32:57.494Z,99057.00
2018-10-06T03:35:02.352Z,99054.00
2018-10-06T03:37:06.872Z,99044.00
2018-10-06T03:39:11.474Z,99027.00
2018-10-06T03:41:15.964Z,99032.00
2018-10-06T03:43:20.507Z,99032.00
2018-10-06T03:45:25.667Z,99027.00
2018-10-06T03:47:30.118Z,99025.00
2018-10-06T03:49:35.871Z,99026.00
2018-10-06T03:51:40.368Z,99022.00
2018-10-06T03:53:44.847Z,99014.00
2018-10-06T03:55:49.381Z,99023.00
2018-10-06T03:57:54.578Z,99011.00
2018-10-06T03:59:59.085Z,99010.00
2018-10-06T04:02:03.663Z,98997.00
2018-10-06T04:04:08.227Z,99006.00
2018-10-06T04:06:12.710Z,99007.00
2018-10-06T04:08:17.208Z,98996.00
2018-10-06T04:10:21.726Z,99006.00
2018-10-06T04:12:26.228Z,98999.00
2018-10-06T04:14:30.791Z,98998.00
2018-10-06T04:16:36.087Z,98999.00
2018-10-06T04:18:40.599Z,98993.00
2018-10-06T04:20:45.099Z,98995.00
2018-10-06T04:22:49.629Z,98986.00
2018-10-06T04:24:54.159Z,98985.00
2018-10-06T04:26:58.699Z,98984.00
2018-10-06T04:29:03.190Z,98980.00
2018-10-06T04:31:07.714Z,98980.00
2018-10-06T04:33:12.227Z,98983.00
2018-10-06T04:35:16.767Z,98967.00
2018-10-06T04:37:21.308Z,98976.00
2018-10-06T04:39:25.891Z,98971.00
2018-10-06T04:41:30.685Z,98962.00
2018-10-06T04:43:36.292Z,98971.00
2018-10-06T04:45:40.778Z,98968.00
2018-10-06T04:47:45.347Z,98960.00
2018-10-06T04:49:49.854Z,98957.00
2018-10-06T04:51:54.451Z,98956.00
2018-10-06T04:53:59.264Z,98956.00
2018-10-06T04:56:03.734Z,98965.00
2018-10-06T04:58:08.242Z,98966.00
2018-10-06T05:00:12.759Z,98956.00
2018-10-06T05:02:17.274Z,98958.00
2018-10-06T05:04:21.788Z,98959.00
2018-10-06T05:06:28.742Z,98957.00
2018-10-06T05:08:33.206Z,98962.00
2018-10-06T05:10:37.759Z,98962.00
2018-10-06T05:12:42.299Z,98962.00
2018-10-06T05:14:46.982Z,98955.00
2018-10-06T05:16:51.551Z,98958.00
2018-10-06T05:18:56.645Z,98948.00
2018-10-06T05:21:01.233Z,98951.00
2018-10-06T05:23:05.770Z,98951.00
2018-10-06T05:25:10.291Z,98942.00
2018-10-06T05:27:14.795Z,98931.00
2018-10-06T05:29:19.330Z,98940.00
2018-10-06T05:31:23.863Z,98944.00
2018-10-06T05:33:28.439Z,98937.00
2018-10-06T05:35:32.988Z,98941.00
2018-10-06T05:37:37.622Z,98933.00
2018-10-06T05:39:42.139Z,98946.00
2018-10-06T05:41:46.638Z,98945.00
2018-10-06T05:43:51.171Z,98934.00
2018-10-06T05:45:56.435Z,98945.00
2018-10-06T05:48:01.139Z,98943.00
2018-10-06T05:50:06.619Z,98941.00
2018-10-06T05:52:11.091Z,98940.00
2018-10-06T05:54:15.707Z,98940.00
2018-10-06T05:56:21.383Z,98950.00
2018-10-06T05:58:25.893Z,98948.00
2018-10-06T06:00:30.758Z,98950.00
2018-10-06T06:02:35.274Z,98948.00
2018-10-06T06:04:40.112Z,98954.00
2018-10-06T06:06:44.625Z,98953.00
2018-10-06T06:08:49.180Z,98947.00
2018-10-06T06:10:53.747Z,98945.00
2018-10-06T06:12:58.379Z,98956.00
2018-10-06T06:15:04.043Z,98941.00
2018-10-06T06:17:08.797Z,98944.00
2018-10-06T06:19:13.381Z,98952.00
2018-10-06T06:21:17.896Z,98953.00
2018-10-06T06:23:22.560Z,98962.00
2018-10-06T06:25:27.352Z,98956.00
2018-10-06T06:27:31.955Z,98952.00
2018-10-06T06:29:36.442Z,98958.00
2018-10-06T06:31:41.095Z,98952.00
2018-10-06T06:33:45.724Z,98958.00
2018-10-06T06:35:50.232Z,98949.00
2018-10-06T06:37:54.779Z,98954.00
2018-10-06T06:39:59.258Z,98945.00
2018-10-06T06:42:04.411Z,98941.00
2018-10-06T06:44:09.438Z,98942.00
2018-10-06T06:46:14.006Z,98940.00
2018-10-06T06:48:19.039Z,98935.00
2018-10-06T06:50:24.456Z,98926.00
2018-10-06T06:52:29.030Z,98929.00
2018-10-06T06:54:33.616Z,98930.00
2018-10-06T06:56:38.200Z,98926.00
2018-10-06T06:58:42.945Z,98922.00
2018-10-06T07:00:47.783Z,98918.00
2018-10-06T07:02:52.362Z,98919.00
2018-10-06T07:04:56.827Z,98927.00
2018-10-06T07:07:01.406Z,98919.00
2018-10-06T07:09:07.535Z,98915.00
2018-10-06T07:11:12.631Z,98904.00
2018-10-06T07:13:17.170Z,98914.00
2018-10-06T07:15:21.862Z,98916.00
2018-10-06T07:17:26.567Z,98918.00
2018-10-06T07:19:31.906Z,98905.00
2018-10-06T07:21:36.419Z,98910.00
2018-10-06T07:23:41.047Z,98902.00
2018-10-06T07:25:46.784Z,98897.00
2018-10-06T07:27:54.194Z,98896.00
2018-10-06T07:30:02.798Z,98899.00
2018-10-06T07:32:07.611Z,98893.00
2018-10-06T07:34:12.287Z,98900.00
2018-10-06T07:36:16.778Z,98895.00
2018-10-06T07:38:21.372Z,98892.00
2018-10-06T07:40:26.668Z,98895.00
2018-10-06T07:42:31.222Z,98890.00
2018-10-06T07:44:36.035Z,98890.00
2018-10-06T07:46:41.491Z,98893.00
2018-10-06T07:48:46.795Z,98888.00
2018-10-06T07:50:51.338Z,98893.00
2018-10-06T07:52:55.868Z,98891.00
2018-10-06T07:55:01.671Z,98882.00
2018-10-06T07:57:06.884Z,98888.00
2018-10-06T07:59:11.464Z,98882.00
2018-10-06T08:01:15.935Z,98883.00
2018-10-06T08:03:20.506Z,98882.00
2018-10-06T08:05:25.708Z,98878.00
2018-10-06T08:07:30.455Z,98884.00
2018-10-06T08:09:35.355Z,98876.00
2018-10-06T08:11:40.542Z,98871.00
2018-10-06T08:13:45.902Z,98866.00
2018-10-06T08:15:52.406Z,98863.00
2018-10-06T08:17:57.032Z,98865.00
2018-10-06T08:20:01.747Z,98857.00
2018-10-06T08:22:06.667Z,98855.00
2018-10-06T08:24:11.288Z,98855.00
2018-10-06T08:26:16.872Z,98855.00
2018-10-06T08:28:22.561Z,98847.00
2018-10-06T08:30:27.340Z,98853.00
2018-10-06T08:32:31.946Z,98848.00
2018-10-06T08:34:36.559Z,98847.00
2018-10-06T08:36:41.081Z,98848.00
2018-10-06T08:38:45.677Z,98844.00
2018-10-06T08:40:50.309Z,98842.00
2018-10-06T08:42:55.635Z,98837.00
2018-10-06T08:45:02.918Z,98833.00
2018-10-06T08:47:07.566Z,98824.00
2018-10-06T08:49:12.078Z,98828.00
2018-10-06T08:51:17.499Z,98829.00
2018-10-06T08:53:22.010Z,98826.00
2018-10-06T08:55:26.599Z,98830.00
2018-10-06T08:57:31.108Z,98818.00
2018-10-06T08:59:36.551Z,98821.00
2018-10-06T09:01:41.886Z,98818.00
2018-10-06T09:03:46.435Z,98816.00
2018-10-06T09:05:50.919Z,98822.00
2018-10-06T09:07:56.327Z,98810.00
2018-10-06T09:10:00.863Z,98814.00
2018-10-06T09:12:05.384Z,98809.00
2018-10-06T09:14:09.907Z,98814.00
2018-10-06T09:16:14.744Z,98807.00
2018-10-06T09:18:19.361Z,98813.00
2018-10-06T09:20:23.883Z,98805.00
2018-10-06T09:22:28.455Z,98813.00
2018-10-06T09:24:33.079Z,98803.00
2018-10-06T09:26:38.175Z,98803.00
2018-10-06T09:28:42.691Z,98801.00
2018-10-06T09:30:47.599Z,98804.00
2018-10-06T09:32:52.131Z,98798.00
2018-10-06T09:34:58.106Z,98801.00
2018-10-06T09:37:02.820Z,98779.00
2018-10-06T09:39:09.513Z,98787.00
2018-10-06T09:41:14.031Z,98785.00
2018-10-06T09:43:18.587Z,98773.00
2018-10-06T09:45:23.291Z,98771.00
2018-10-06T09:47:28.564Z,98775.00
2018-10-06T09:49:33.486Z,98772.00
2018-10-06T09:51:38.107Z,98768.00
2018-10-06T09:53:43.018Z,98774.00
2018-10-06T09:55:48.153Z,98761.00
2018-10-06T09:57:52.802Z,98762.00
2018-10-06T09:59:58.271Z,98751.00
2018-10-06T10:02:04.878Z,98760.00
2018-10-06T10:04:11.526Z,98763.00
2018-10-06T10:06:16.146Z,98753.00
2018-10-06T10:08:20.701Z,98758.00
2018-10-06T10:10:29.946Z,98758.00
2018-10-06T10:12:34.694Z,98755.00
2018-10-06T10:14:39.325Z,98756.00
2018-10-06T10:16:45.323Z,98753.00
2018-10-06T10:18:49.875Z,98748.00
2018-10-06T10:20:54.418Z,98748.00
2018-10-06T10:22:58.987Z,98740.00
2018-10-06T10:25:03.614Z,98732.00
2018-10-06T10:27:08.180Z,98743.00
2018-10-06T10:29:13.311Z,98736.00
2018-10-06T10:31:17.998Z,98732.00
2018-10-06T10:33:22.573Z,98727.00
2018-10-06T10:35:27.190Z,98729.00
2018-10-06T10:37:31.810Z,98740.00
2018-10-06T10:39:36.505Z,98735.00
2018-10-06T10:41:42.030Z,98737.00
2018-10-06T10:43:46.676Z,98733.00
2018-10-06T10:45:51.240Z,98731.00
2018-10-06T10:47:56.031Z,98733.00
2018-10-06T10:50:00.667Z,98728.00
2018-10-06T10:52:05.314Z,98724.00
2018-10-06T10:54:10.471Z,98727.00
2018-10-06T10:56:15.001Z,98723.00
2018-10-06T10:58:19.584Z,98721.00
2018-10-06T11:00:24.223Z,98723.00
2018-10-06T11:02:28.732Z,98734.00
2018-10-06T11:04:34.310Z,98727.00
2018-10-06T11:06:40.909Z,98734.00
2018-10-06T11:08:47.793Z,98726.00
2018-10-06T11:10:53.777Z,98726.00
2018-10-06T11:13:01.179Z,98716.00
2018-10-06T11:15:09.659Z,98723.00
2018-10-06T11:17:18.238Z,98723.00
2018-10-06T11:19:28.002Z,98719.00
2018-10-06T11:21:36.117Z,98710.00
2018-10-06T11:23:41.259Z,98715.00
2018-10-06T11:25:46.483Z,98707.00
2018-10-06T11:27:51.052Z,98715.00
2018-10-06T11:29:55.884Z,98715.00
2018-10-06T11:32:00.675Z,98708.00
2018-10-06T11:34:06.966Z,98706.00
2018-10-06T11:36:12.179Z,98703.00
2018-10-06T11:38:16.782Z,98699.00
2018-10-06T11:40:21.394Z,98695.00
2018-10-06T11:42:25.999Z,98692.00
2018-10-06T11:44:30.810Z,98682.00
2018-10-06T11:46:36.115Z,98680.00
2018-10-06T11:48:41.598Z,98677.00
2018-10-06T11:50:47.204Z,98672.00
2018-10-06T11:52:53.284Z,98675.00
2018-10-06T11:54:58.222Z,98678.00
2018-10-06T11:57:04.346Z,98663.00
2018-10-06T11:59:08.865Z,98667.00
2018-10-06T12:01:13.782Z,98672.00
2018-10-06T12:03:18.340Z,98665.00
2018-10-06T12:05:24.435Z,98658.00
2018-10-06T12:07:28.991Z,98655.00
2018-10-06T12:09:34.086Z,98665.00
2018-10-06T12:11:39.336Z,98660.00
2018-10-06T12:13:45.045Z,98655.00
2018-10-06T12:15:49.978Z,98656.00
2018-10-06T12:17:55.210Z,98669.00
2018-10-06T12:20:00.470Z,98661.00
2018-10-06T12:22:05.070Z,98656.00
2018-10-06T12:24:09.546Z,98653.00
2018-10-06T12:26:15.136Z,98654.00
2018-10-06T12:28:19.744Z,98660.00
2018-10-06T12:30:24.635Z,98650.00
2018-10-06T12:32:30.204Z,98654.00
2018-10-06T12:34:35.266Z,98651.00
2018-10-06T12:36:40.079Z,98644.00
2018-10-06T12:38:45.118Z,98651.00
2018-10-06T12:40:49.707Z,98643.00
2018-10-06T12:42:54.614Z,98647.00
2018-10-06T12:45:00.762Z,98645.00
2018-10-06T12:47:05.363Z,98645.00
2018-10-06T12:49:10.446Z,98643.00
2018-10-06T12:51:15.390Z,98647.00
2018-10-06T12:53:20.134Z,98646.00
2018-10-06T12:55:25.148Z,98639.00
2018-10-06T12:57:30.296Z,98642.00
2018-10-06T12:59:34.877Z,98638.00
2018-10-06T13:01:39.850Z,98635.00
2018-10-06T13:03:44.386Z,98630.00
2018-10-06T13:05:50.516Z,98627.00
2018-10-06T13:07:55.847Z,98633.00
2018-10-06T13:10:00.547Z,98640.00
2018-10-06T13:12:05.067Z,98634.00
2018-10-06T13:14:09.877Z,98633.00
2018-10-06T13:16:14.570Z,98635.00
2018-10-06T13:18:20.357Z,98637.00
2018-10-06T13:20:24.964Z,98641.00
2018-10-06T13:22:30.562Z,98630.00
2018-10-06T13:24:35.592Z,98628.00
2018-10-06T13:26:42.103Z,98631.00
2018-10-06T13:28:47.394Z,98623.00
2018-10-06T13:30:53.370Z,98630.00
2018-10-06T13:32:59.104Z,98630.00
2018-10-06T13:35:06.565Z,98629.00
2018-10-06T13:37:11.808Z,98625.00
2018-10-06T13:39:17.810Z,98628.00
2018-10-06T13:41:23.064Z,98626.00
2018-10-06T13:45:39.895Z,98615.00
2018-10-06T13:47:45.408Z,98615.00
2018-10-06T13:49:50.153Z,98610.00
2018-10-06T13:51:56.365Z,98617.00
2018-10-06T13:54:01.987Z,98608.00
2018-10-06T13:56:08.477Z,98607.00
2018-10-06T13:58:13.696Z,98607.00
2018-10-06T14:00:18.773Z,98600.00
2018-10-06T14:02:23.777Z,98607.00
2018-10-06T14:04:28.328Z,98607.00
2018-10-06T14:06:34.013Z,98603.00
2018-10-06T14:08:38.566Z,98606.00
2018-10-06T14:10:43.367Z,98593.00
2018-10-06T14:12:47.910Z,98588.00
2018-10-06T14:14:52.542Z,98586.00
2018-10-06T14:16:57.095Z,98584.00
2018-10-06T14:19:01.654Z,98590.00
2018-10-06T14:21:06.676Z,98593.00
2018-10-06T14:23:11.223Z,98583.00
2018-10-06T14:25:15.719Z,98585.00
2018-10-06T14:27:20.264Z,98583.00
2018-10-06T14:29:24.924Z,98582.00
2018-10-06T14:31:29.423Z,98581.00
2018-10-06T14:33:33.939Z,98581.00
2018-10-06T14:35:38.456Z,98580.00
2018-10-06T14:37:44.061Z,98578.00
2018-10-06T14:39:48.587Z,98581.00
2018-10-06T14:41:53.203Z,98578.00
2018-10-06T14:43:57.717Z,98574.00
2018-10-06T14:46:02.200Z,98565.00
2018-10-06T14:48:06.931Z,98574.00
2018-10-06T14:50:11.504Z,98568.00
2018-10-06T14:52:16.029Z,98566.00
2018-10-06T14:54:20.544Z,98567.00
2018-10-06T14:56:25.046Z,98564.00
2018-10-06T14:58:29.607Z,98564.00
2018-10-06T15:00:34.140Z,98554.00
2018-10-06T15:02:38.643Z,98559.00
2018-10-06T15:04:43.164Z,98551.00
2018-10-06T15:06:47.715Z,98554.00
2018-10-06T15:08:52.286Z,98552.00
2018-10-06T15:10:56.811Z,98542.00
2018-10-06T15:13:01.341Z,98544.00
2018-10-06T15:15:07.131Z,98544.00
2018-10-06T15:17:11.724Z,98535.00
2018-10-06T15:19:16.222Z,98529.00
2018-10-06T15:21:20.797Z,98534.00
2018-10-06T15:23:25.251Z,98521.00
2018-10-06T15:25:29.767Z,98535.00
2018-10-06T15:27:34.327Z,98527.00
2018-10-06T15:29:38.847Z,98524.00
2018-10-06T15:31:43.370Z,98520.00
2018-10-06T15:33:47.897Z,98517.00
2018-10-06T15:35:52.433Z,98523.00
2018-10-06T15:37:57.114Z,98522.00
2018-10-06T15:40:01.571Z,98517.00
2018-10-06T15:42:06.242Z,98514.00
2018-10-06T15:44:10.767Z,98516.00
2018-10-06T15:46:15.827Z,98521.00
2018-10-06T15:48:20.634Z,98516.00
2018-10-06T15:50:25.137Z,98512.00
2018-10-06T15:52:29.639Z,98518.00
2018-10-06T15:54:34.150Z,98527.00
2018-10-06T15:56:38.718Z,98521.00
2018-10-06T15:58:44.039Z,98531.00
2018-10-06T16:00:48.635Z,98522.00
2018-10-06T16:02:54.098Z,98530.00
2018-10-06T16:04:58.588Z,98524.00
2018-10-06T16:07:03.128Z,98527.00
2018-10-06T16:09:08.382Z,98525.00
2018-10-06T16:11:12.878Z,98534.00
2018-10-06T16:13:17.402Z,98527.00
2018-10-06T16:15:21.946Z,98525.00
2018-10-06T16:17:26.446Z,98530.00
2018-10-06T16:19:30.982Z,98531.00
2018-10-06T16:21:35.591Z,98528.00
2018-10-06T16:23:40.076Z,98540.00
2018-10-06T16:25:44.587Z,98530.00
2018-10-06T16:27:49.079Z,98530.00
2018-10-06T16:29:53.639Z,98538.00
2018-10-06T16:31:58.115Z,98527.00
2018-10-06T16:34:02.644Z,98536.00
2018-10-06T16:36:08.268Z,98527.00
2018-10-06T16:38:12.763Z,98521.00
2018-10-06T16:40:17.288Z,98529.00
2018-10-06T16:42:22.403Z,98523.00
2018-10-06T16:44:26.977Z,98525.00
2018-10-06T16:46:31.543Z,98526.00
2018-10-06T16:48:36.090Z,98527.00
2018-10-06T16:50:40.883Z,98526.00
2018-10-06T16:52:45.342Z,98522.00
2018-10-06T16:54:49.883Z,98526.00
2018-10-06T16:56:54.366Z,98536.00
2018-10-06T16:58:58.896Z,98529.00
2018-10-06T17:01:03.375Z,98530.00
2018-10-06T17:03:08.818Z,98542.00
2018-10-06T17:05:13.345Z,98547.00
2018-10-06T17:07:17.939Z,98545.00
2018-10-06T17:09:22.504Z,98544.00
2018-10-06T17:11:28.148Z,98544.00
2018-10-06T17:13:33.238Z,98548.00
2018-10-06T17:15:37.779Z,98546.00
2018-10-06T17:17:46.083Z,98544.00
2018-10-06T17:19:57.473Z,98544.00
2018-10-06T17:22:04.196Z,98548.00
2018-10-06T17:24:08.972Z,98556.00
2018-10-06T17:26:13.464Z,98555.00
2018-10-06T17:28:18.005Z,98553.00
2018-10-06T17:30:22.543Z,98551.00
2018-10-06T17:32:27.161Z,98550.00
2018-10-06T17:34:33.219Z,98555.00
2018-10-06T17:36:37.710Z,98559.00
2018-10-06T17:38:42.324Z,98555.00
2018-10-06T17:40:47.856Z,98560.00
2018-10-06T17:42:52.931Z,98571.00
2018-10-06T17:44:58.462Z,98566.00
2018-10-06T17:47:03.713Z,98569.00
2018-10-06T17:49:08.251Z,98571.00
2018-10-06T17:51:12.718Z,98584.00
2018-10-06T17:53:17.244Z,98576.00
2018-10-06T17:55:22.708Z,98585.00
2018-10-06T17:57:27.307Z,98576.00
2018-10-06T17:59:32.350Z,98591.00
2018-10-06T18:01:36.825Z,98587.00
2018-10-06T18:03:42.050Z,98593.00
2018-10-06T18:05:46.585Z,98595.00
2018-10-06T18:07:52.238Z,98598.00
2018-10-06T18:09:57.411Z,98599.00
2018-10-06T18:12:02.094Z,98592.00
2018-10-06T18:14:07.282Z,98588.00
2018-10-06T18:16:12.446Z,98590.00
2018-10-06T18:18:19.513Z,98601.00
2018-10-06T18:20:27.092Z,98593.00
2018-10-06T18:22:31.474Z,98602.00
2018-10-06T18:24:35.967Z,98591.00
2018-10-06T18:26:40.655Z,98590.00
2018-10-06T18:28:45.118Z,98603.00
2018-10-06T18:30:49.727Z,98602.00
2018-10-06T18:32:54.298Z,98600.00
2018-10-06T18:34:58.938Z,98606.00
2018-10-06T18:37:03.599Z,98610.00
2018-10-06T18:39:08.582Z,98613.00
2018-10-06T18:43:14.275Z,98620.00
2018-10-06T18:45:18.894Z,98610.00
2018-10-06T18:47:23.384Z,98612.00
2018-10-06T18:49:27.915Z,98613.00
2018-10-06T18:51:32.482Z,98615.00
2018-10-06T18:53:37.080Z,98614.00
2018-10-06T18:55:42.436Z,98622.00
2018-10-06T18:57:46.975Z,98622.00
2018-10-06T18:59:51.490Z,98633.00
2018-10-06T19:01:56.270Z,98631.00
2018-10-06T19:04:00.869Z,98624.00
2018-10-06T19:06:05.323Z,98633.00
2018-10-06T19:08:09.883Z,98635.00
2018-10-06T19:10:14.434Z,98642.00
2018-10-06T19:12:18.950Z,98642.00
2018-10-06T19:14:23.646Z,98649.00
2018-10-06T19:16:28.245Z,98651.00
2018-10-06T19:18:33.843Z,98655.00
2018-10-06T19:20:38.396Z,98643.00
2018-10-06T19:22:43.002Z,98646.00
2018-10-06T19:24:47.538Z,98663.00
2018-10-06T19:26:52.303Z,98661.00
2018-10-06T19:28:56.783Z,98660.00
2018-10-06T19:31:01.294Z,98667.00
2018-10-06T19:33:06.046Z,98665.00
2018-10-06T19:35:10.571Z,98669.00
2018-10-06T19:37:15.379Z,98671.00
2018-10-06T19:39:19.899Z,98662.00
2018-10-06T19:41:24.413Z,98669.00
2018-10-06T19:43:28.914Z,98674.00
2018-10-06T19:45:34.684Z,98668.00
2018-10-06T19:47:40.226Z,98674.00
2018-10-06T19:49:44.739Z,98675.00
2018-10-06T19:51:49.245Z,98670.00
2018-10-06T19:53:54.874Z,98677.00
2018-10-06T19:55:59.390Z,98676.00
2018-10-06T19:58:03.910Z,98678.00
2018-10-06T20:00:08.444Z,98677.00
2018-10-06T20:02:13.880Z,98676.00
2018-10-06T20:04:18.448Z,98672.00
2018-10-06T20:06:22.906Z,98680.00
2018-10-06T20:08:27.444Z,98678.00
2018-10-06T20:10:32.054Z,98673.00
2018-10-06T20:12:37.291Z,98669.00
2018-10-06T20:14:41.802Z,98677.00
2018-10-06T20:16:46.398Z,98685.00
2018-10-06T20:18:50.970Z,98676.00
2018-10-06T20:20:55.575Z,98688.00
2018-10-06T20:23:00.783Z,98688.00
2018-10-06T20:25:05.484Z,98694.00
2018-10-06T20:27:10.545Z,98685.00
2018-10-06T20:29:15.636Z,98696.00
2018-10-06T20:31:20.392Z,98692.00
2018-10-06T20:33:24.922Z,98695.00
2018-10-06T20:35:29.952Z,98697.00
2018-10-06T20:37:34.831Z,98695.00
2018-10-06T20:39:39.652Z,98698.00
2018-10-06T20:41:44.528Z,98703.00
2018-10-06T20:43:49.331Z,98695.00
2018-10-06T20:45:54.403Z,98701.00
2018-10-06T20:47:58.944Z,98710.00
2018-10-06T20:50:03.452Z,98709.00
2018-10-06T20:52:08.215Z,98716.00
2018-10-06T20:54:12.751Z,98719.00
2018-10-06T20:56:18.185Z,98722.00
2018-10-06T20:58:23.281Z,98721.00
2018-10-06T21:00:27.911Z,98730.00
2018-10-06T21:02:33.214Z,98729.00
2018-10-06T21:04:38.209Z,98726.00
2018-10-06T21:06:43.247Z,98730.00
2018-10-06T21:08:48.923Z,98744.00
2018-10-06T21:10:53.494Z,98739.00
2018-10-06T21:12:58.807Z,98734.00
2018-10-06T21:15:03.604Z,98738.00
2018-10-06T21:17:08.866Z,98739.00
2018-10-06T21:19:13.952Z,98749.00
2018-10-06T21:21:18.811Z,98744.00
2018-10-06T21:23:24.487Z,98749.00
2018-10-06T21:25:29.310Z,98750.00
2018-10-06T21:27:33.882Z,98744.00
2018-10-06T21:29:40.391Z,98743.00
2018-10-06T21:31:49.739Z,98738.00
2018-10-06T21:33:56.231Z,98745.00
2018-10-06T21:36:01.628Z,98740.00
2018-10-06T21:38:06.258Z,98732.00
2018-10-06T21:40:10.785Z,98734.00
2018-10-06T21:42:16.590Z,98742.00
2018-10-06T21:44:21.304Z,98738.00
2018-10-06T21:46:27.153Z,98739.00
2018-10-06T21:48:32.553Z,98728.00
2018-10-06T21:50:37.334Z,98742.00
2018-10-06T21:52:42.599Z,98745.00
2018-10-06T21:54:47.351Z,98751.00
2018-10-06T21:56:51.847Z,98757.00
2018-10-06T21:58:56.626Z,98755.00
2018-10-06T22:01:06.299Z,98754.00
2018-10-06T22:03:10.905Z,98759.00
2018-10-06T22:05:16.544Z,98759.00
2018-10-06T22:07:21.204Z,98758.00
2018-10-06T22:09:26.055Z,98765.00
2018-10-06T22:11:30.804Z,98761.00
2018-10-06T22:13:35.446Z,98763.00
2018-10-06T22:15:40.456Z,98771.00
2018-10-06T22:17:45.746Z,98768.00
2018-10-06T22:19:50.962Z,98761.00
2018-10-06T22:21:57.010Z,98771.00
2018-10-06T22:24:01.574Z,98773.00
2018-10-06T22:26:06.502Z,98793.00
2018-10-06T22:28:11.042Z,98794.00
2018-10-06T22:30:16.830Z,98794.00
2018-10-06T22:32:21.319Z,98801.00
2018-10-06T22:34:26.649Z,98794.00
2018-10-06T22:36:31.143Z,98801.00
2018-10-06T22:38:36.819Z,98799.00
2018-10-06T22:40:41.416Z,98808.00
2018-10-06T22:42:46.307Z,98800.00
2018-10-06T22:44:50.836Z,98799.00
2018-10-06T22:46:55.355Z,98797.00
2018-10-06T22:48:59.923Z,98805.00
2018-10-06T22:51:04.418Z,98810.00
2018-10-06T22:53:09.046Z,98804.00
2018-10-06T22:55:13.604Z,98796.00
2018-10-06T22:57:18.099Z,98801.00
2018-10-06T22:59:22.772Z,98802.00
2018-10-06T23:01:27.746Z,98807.00
2018-10-06T23:03:33.479Z,98812.00
2018-10-06T23:05:38.958Z,98803.00
2018-10-06T23:07:43.583Z,98809.00
2018-10-06T23:09:48.112Z,98809.00
2018-10-06T23:11:52.621Z,98812.00
2018-10-06T23:13:58.076Z,98810.00
2018-10-06T23:16:05.479Z,98820.00
2018-10-06T23:18:11.716Z,98817.00
2018-10-06T23:20:16.690Z,98815.00
2018-10-06T23:22:21.547Z,98818.00
2018-10-06T23:24:26.095Z,98815.00
2018-10-06T23:26:30.631Z,98817.00
2018-10-06T23:28:35.179Z,98822.00
2018-10-06T23:30:39.739Z,98825.00
2018-10-06T23:32:44.295Z,98826.00
2018-10-06T23:34:48.902Z,98832.00
2018-10-06T23:36:53.874Z,98826.00
2018-10-06T23:38:58.507Z,98842.00
2018-10-06T23:41:04.250Z,98832.00
2018-10-06T23:43:10.641Z,98827.00
2018-10-06T23:45:15.162Z,98830.00
2018-10-06T23:47:20.615Z,98832.00
2018-10-06T23:49:27.693Z,98826.00
2018-10-06T23:51:33.931Z,98823.00
2018-10-06T23:53:38.544Z,98828.00
2018-10-06T23:55:43.415Z,98824.00
2018-10-06T23:57:47.909Z,98827.00
2018-10-06T23:59:52.540Z,98828.00
